»·PEaware :: N7027G KSBA-KBUR

N7027G :: KSBA-KBUR

FLIGHT INFORMATION

Flight Status: Arrived
Operator: Privately registered:
United States
More flights under this callsign
Pilot: Curtis W. (20235)
Aircraft: CESSNA 172 SKYHAWK
(C172)
More flights by this aircraft type
Origin: KSBA Santa Barbara Mun
United States
Destination: KBUR Bob Hope-Burbank
United States
More flights between these airports :: More routes between these airports
Route: +
File this flight plan on PilotEdge
Remarks:
Altitude:
(Current/Filed)
5,500ft
Speed:
(Current/Filed)
0kts
Departed: 03-Sep-18 01:29 PM
Arrived: 03-Sep-18 02:13 PM
Distance/Time
Traveled:
0nm/0:44
Distance/Time
To Go:
Arrived

Flight Plot

Page will automatically refresh every two minutes.


Map Options




Map Legend


Flown Route
Filed Route
Departure Airport
Arrival Airport
Navaid (VOR, NDB)
Fix

Horizontal Profiles

Position Reports

Time Latitude Longitude Heading Altitude Ground
Speed
03-Sep-18 13:25 34.422780 -119.835792 282 17ft 0kts
03-Sep-18 13:26 34.422780 -119.835792 282 17ft 0kts
03-Sep-18 13:27 34.422780 -119.835792 282 17ft 0kts
03-Sep-18 13:28 34.425773 -119.838092 344 17ft 27kts
03-Sep-18 13:29 34.427046 -119.834636 16 17ft 0kts
03-Sep-18 13:30 34.427046 -119.834636 16 17ft 0kts
03-Sep-18 13:31 34.427799 -119.840172 270 30ft 75kts
03-Sep-18 13:32 34.430849 -119.866995 276 1008ft 86kts
03-Sep-18 13:33 34.420647 -119.866334 100 1978ft 96kts
03-Sep-18 13:34 34.417775 -119.831474 98 2691ft 109kts
03-Sep-18 13:35 34.413084 -119.795387 103 3392ft 109kts
03-Sep-18 13:36 34.407968 -119.759005 104 4092ft 109kts
03-Sep-18 13:37 34.403216 -119.725218 97 4753ft 106kts
03-Sep-18 13:38 34.396351 -119.691783 103 5570ft 97kts
03-Sep-18 13:39 34.389983 -119.661466 103 6465ft 89kts
03-Sep-18 13:40 34.382845 -119.627312 103 6641ft 128kts
03-Sep-18 13:41 34.375794 -119.588810 99 6567ft 99kts
03-Sep-18 13:42 34.370519 -119.553048 99 6570ft 124kts
03-Sep-18 13:43 34.365025 -119.515640 99 7042ft 105kts
03-Sep-18 13:44 34.359969 -119.480477 99 7507ft 116kts
03-Sep-18 13:45 34.354265 -119.441047 99 7504ft 118kts
03-Sep-18 13:46 34.348621 -119.401705 99 7504ft 118kts
03-Sep-18 13:47 34.343030 -119.362357 99 7504ft 118kts
03-Sep-18 13:48 34.337767 -119.324955 99 7504ft 118kts
03-Sep-18 13:49 34.332304 -119.285757 99 7504ft 118kts
03-Sep-18 13:50 34.326883 -119.246466 99 7504ft 118kts
03-Sep-18 13:51 34.321493 -119.206996 99 7504ft 118kts
03-Sep-18 13:52 34.315802 -119.167778 100 7514ft 118kts
03-Sep-18 13:53 34.309981 -119.128624 99 7514ft 118kts
03-Sep-18 13:54 34.304184 -119.089273 99 7514ft 118kts
03-Sep-18 13:55 34.298455 -119.050004 99 7514ft 118kts
03-Sep-18 13:56 34.292787 -119.010778 99 7514ft 118kts
03-Sep-18 13:56 34.288086 -118.977958 99 7514ft 118kts
03-Sep-18 13:57 34.282530 -118.938814 99 7531ft 117kts
03-Sep-18 13:59 34.276098 -118.893000 99 7532ft 118kts
03-Sep-18 14:00 34.270649 -118.853775 99 7532ft 118kts
03-Sep-18 14:00 34.266052 -118.820569 99 7179ft 121kts
03-Sep-18 14:01 34.260521 -118.780334 99 6679ft 121kts
03-Sep-18 14:02 34.255035 -118.740029 99 6178ft 120kts
03-Sep-18 14:04 34.248820 -118.693864 98 5595ft 119kts
03-Sep-18 14:04 34.244432 -118.660932 98 5180ft 119kts
03-Sep-18 14:05 34.239961 -118.621046 100 4678ft 119kts
03-Sep-18 14:06 34.233175 -118.582147 101 3773ft 119kts
03-Sep-18 14:07 34.226308 -118.542857 101 2776ft 119kts
03-Sep-18 14:08 34.219967 -118.506212 101 2250ft 102kts
03-Sep-18 14:09 34.213975 -118.470558 101 2670ft 108kts
03-Sep-18 14:10 34.208411 -118.441086 111 2409ft 88kts
03-Sep-18 14:11 34.199766 -118.414613 107 1848ft 80kts
03-Sep-18 14:12 34.198206 -118.390629 89 1422ft 66kts
03-Sep-18 14:13 34.197935 -118.367773 91 801ft 61kts
03-Sep-18 14:14 34.198538 -118.360360 353 781ft 5kts
03-Sep-18 14:15 34.199972 -118.364628 355 781ft 0kts
03-Sep-18 14:16 34.422664 -119.835593 340 17ft 0kts
03-Sep-18 14:17 34.422664 -119.835593 340 17ft 0kts
03-Sep-18 14:18 34.422664 -119.835593 340 17ft 0kts
03-Sep-18 14:19 34.422664 -119.835593 340 17ft 0kts
03-Sep-18 14:20 34.422664 -119.835593 340 17ft 0kts
03-Sep-18 14:21 34.422664 -119.835593 340 17ft 0kts
03-Sep-18 14:22 34.422664 -119.835593 340 17ft 0kts
03-Sep-18 14:23 34.422664 -119.835593 340 17ft 0kts
03-Sep-18 14:24 34.422664 -119.835593 340 17ft 0kts
03-Sep-18 14:25 34.422664 -119.835593 340 17ft 0kts
03-Sep-18 14:26 34.422664 -119.835593 340 17ft 0kts
03-Sep-18 14:27 34.422664 -119.835593 340 17ft 0kts
03-Sep-18 14:28 34.422664 -119.835593 340 17ft 0kts

Navigation Log

Ident Type
1. KSBA Airport
2. KBUR Airport